Latest Weather Observations for Giles*

IDW60801

Issued at 4:43 pm WST Tuesday 22 October 2019 (issued every 10 minutes, with the page automatically refreshed every 10 minutes)

About weather observations | Map of weather stations | Latest weather observations for WA | Other Formats
Station Details ID: 013017 Name: GILES METEOROLOGICAL OFFICE Lat: -25.03 Lon: 128.30 Height: 598.0 m
Data from the previous 72 hours. | See also: Recent months at Giles*

* Giles observations are collected in the South Australia time zone, which includes daylight saving in the summer period. Therefore, Rain since 9am value is with respect to South Australia local time.

Date/Time
WST
Temp
°C
App
Temp
°C
Dew
Point
°C
Rel
Hum
%
Delta-T
°C
Wind Press
QNH
hPa
Press
MSL
hPa
Rain since
9am
mm
Dir  Spd
km/h
Gust
km/h
Spd
kts
Gust
kts
22/04:30pm 33.6 29.7 -5.0 8 17.9 E 7 19 4 10 1014.4 1010.9 0.0
22/04:00pm 33.2 28.7 -3.6 9 17.4 NE 11 13 6 7 1014.5 1011.0 0.0
22/03:30pm 33.6 29.8 -5.1 8 17.9 S 6 17 3 9 1014.6 1011.1 0.0
22/03:00pm 34.9 31.2 -2.9 9 18.3 E 7 13 4 7 1014.8 1011.3 0.0
22/02:30pm 33.3 28.7 -7.5 7 18.1 W 9 19 5 10 1015.1 1011.7 0.0
22/02:00pm 34.4 30.1 -4.6 8 18.3 NNE 9 17 5 9 1015.3 1011.9 0.0
22/01:30pm 33.7 28.8 -6.6 7 18.2 ENE 11 26 6 14 1015.7 1012.2 0.0
22/01:00pm 33.5 29.1 -6.1 7 18.0 NNE 9 13 5 7 1016.1 1012.6 0.0
22/12:30pm 33.2 27.0 -9.4 6 18.3 ENE 17 28 9 15 1016.5 1013.1 0.0
22/12:00pm 32.4 26.6 -8.5 6 17.7 NNE 15 22 8 12 1016.9 1013.5 0.0
22/11:31am - - - - - - - - - - - - -
22/11:30am 32.3 25.9 -11.3 5 18.0 N 17 24 9 13 1017.6 1014.1 0.0
22/11:00am 31.8 25.0 -12.1 5 17.8 N 19 26 10 14 1018.0 1014.6 0.0
22/10:30am 33.0 25.1 -15.4 4 18.8 N 24 33 13 18 1018.3 1014.9 0.0
22/10:00am 32.3 24.4 -15.4 4 18.4 N 24 33 13 18 1018.7 1015.3 0.0
22/09:30am 31.3 22.8 -20.4 3 18.2 N 26 35 14 19 1019.2 1015.7 0.0
22/09:00am 30.9 22.8 -19.3 3 17.9 N 24 33 13 18 1019.4 1015.9 0.0
22/08:30am 29.7 21.7 -17.4 4 17.1 N 24 33 13 18 1019.8 1016.4 0.0
22/08:00am 29.5 21.8 -18.9 3 17.1 N 22 32 12 17 1019.9 1016.5 0.0
22/07:30am 28.7 21.0 -18.0 4 16.6 NNE 22 32 12 17 1019.8 1016.4 0.0
22/07:00am 28.0 21.9 -13.4 6 15.8 NNE 15 24 8 13 1019.8 1016.4 0.0
22/06:30am 26.9 21.9 -13.4 6 15.2 N 9 15 5 8 1019.8 1016.4 0.0
22/06:00am 25.1 20.8 -9.1 9 13.7 ENE 7 13 4 7 1019.5 1016.0 0.0
22/05:30am 20.9 17.9 -5.1 17 10.8 ESE 2 6 1 3 1019.3 1015.8 0.0
22/05:00am 21.2 15.4 -8.7 12 11.6 E 15 20 8 11 1018.9 1015.5 0.0
22/04:30am 20.1 16.4 -3.3 20 10.0 ESE 7 9 4 5 1018.8 1015.4 0.0
22/04:00am 21.2 17.1 -3.4 19 10.6 E 9 15 5 8 1018.5 1015.1 0.0
22/03:30am 20.9 15.9 -1.2 22 9.9 ESE 15 17 8 9 1018.4 1015.0 0.0
22/03:00am 22.2 16.8 -1.6 20 10.7 E 17 22 9 12 1018.1 1014.7 0.0
22/02:30am 21.9 16.8 0.9 25 9.9 E 17 22 9 12 1018.2 1014.8 0.0
22/02:00am 21.3 17.1 1.8 27 9.3 E 13 17 7 9 1018.4 1015.0 0.0
22/01:30am 21.9 17.5 2.6 28 9.4 E 15 19 8 10 1018.4 1015.0 0.0
22/01:00am 22.5 18.2 3.0 28 9.6 ESE 15 22 8 12 1018.7 1015.3 0.0
22/12:30am 22.2 17.7 2.1 26 9.7 SSE 15 20 8 11 1018.8 1015.4 0.0
22/12:00am 21.5 17.7 1.8 27 9.4 SE 11 17 6 9 1018.7 1015.3 0.0
 
Date/Time
WST
Temp
°C
App
Temp
°C
Dew
Point
°C
Rel
Hum
%
Delta-T
°C
Wind Press
QNH
hPa
Press
MSL
hPa
Rain since
9am
mm
Dir  Spd
km/h
Gust
km/h
Spd
kts
Gust
kts
21/11:30pm 23.3 20.8 1.5 24 10.5 SE 4 9 2 5 1018.8 1015.4 0.0
21/11:00pm 24.4 22.8 4.5 27 10.2 NW 2 7 1 4 1018.8 1015.4 0.0
21/10:30pm 25.1 22.9 3.2 24 11.0 ENE 4 11 2 6 1018.9 1015.5 0.0
21/10:00pm 24.2 22.2 2.2 23 10.8 NNE 2 9 1 5 1018.9 1015.5 0.0
21/09:30pm 26.7 22.7 2.6 21 12.1 NNE 13 15 7 8 1019.1 1015.6 0.0
21/09:00pm 26.5 22.8 2.2 20 12.1 NE 11 15 6 8 1019.3 1015.8 0.0
21/08:30pm 26.9 23.2 2.3 20 12.3 NE 11 15 6 8 1019.4 1015.9 0.0
21/08:00pm 27.3 23.6 2.1 19 12.6 NE 11 13 6 7 1019.2 1015.7 0.0
21/07:30pm 28.0 23.8 1.4 18 13.2 NNE 13 17 7 9 1019.1 1015.6 0.0
21/07:00pm 28.4 24.1 1.1 17 13.5 NNE 13 19 7 10 1018.8 1015.4 0.0
21/06:30pm 28.7 24.7 0.6 16 13.8 NNE 11 15 6 8 1018.6 1015.2 0.0
21/06:00pm 29.5 24.6 -0.7 14 14.6 N 15 20 8 11 1018.3 1014.9 0.0
21/05:30pm 30.4 25.3 -2.0 12 15.4 NNE 15 20 8 11 1018.2 1014.8 0.0
21/05:00pm 30.9 25.3 -2.5 11 15.8 N 17 22 9 12 1018.2 1014.8 0.0
21/04:30pm 31.4 26.2 -3.0 10 16.2 N 15 22 8 12 1018.1 1014.7 0.0
21/04:00pm 32.4 27.5 -3.6 9 16.9 NNW 13 20 7 11 1018.2 1014.8 0.0
21/03:30pm 31.5 27.9 0.5 13 15.5 N 9 15 5 8 1018.4 1015.0 0.0
21/03:00pm 32.1 26.1 -3.0 10 16.6 N 19 30 10 16 1018.6 1015.2 0.0
21/02:30pm 32.0 25.8 -4.9 9 16.9 NNW 19 30 10 16 1018.8 1015.4 0.0
21/02:00pm 32.8 25.0 -7.6 7 17.8 N 26 37 14 20 1018.8 1015.4 0.0
21/01:30pm 32.7 25.5 -5.4 8 17.4 N 24 32 13 17 1019.2 1015.7 0.0
21/01:00pm 32.0 25.4 -6.8 8 17.2 N 20 33 11 18 1019.7 1016.3 0.0
21/12:30pm 31.9 24.1 -7.8 7 17.3 N 26 39 14 21 1020.0 1016.6 0.0
21/12:00pm 33.3 25.7 -10.0 5 18.4 N 24 35 13 19 1020.4 1017.0 0.0
21/11:30am 31.4 24.7 -10.0 6 17.3 N 19 28 10 15 1021.0 1017.5 0.0
21/11:00am 30.8 23.0 -8.1 7 16.7 NNE 26 35 14 19 1021.2 1017.8 0.0
21/10:30am 30.1 23.1 -7.5 8 16.2 NNE 22 30 12 16 1021.7 1018.3 0.0
21/10:00am 30.0 23.3 -7.9 8 16.2 NNE 20 30 11 16 1022.2 1018.8 0.0
21/09:30am 29.7 23.2 -8.4 8 16.1 NNE 19 26 10 14 1022.4 1019.0 0.0
21/09:00am 28.5 22.2 -5.7 10 15.0 NE 19 24 10 13 1022.7 1019.3 0.0
21/08:30am 28.1 22.2 -5.3 11 14.7 NE 17 22 9 12 1022.9 1019.5 0.0
21/08:00am 27.2 21.3 -5.3 11 14.2 ENE 17 24 9 13 1022.5 1019.2 0.0
21/07:30am 26.5 20.5 -6.4 11 14.0 ENE 17 24 9 13 1022.7 1019.3 0.0
21/07:00am 24.7 19.7 -4.1 14 12.6 E 13 19 7 10 1022.7 1019.3 0.0
21/06:30am 23.7 18.9 -2.9 17 11.8 E 13 19 7 10 1022.4 1019.0 0.0
21/06:00am 23.5 17.2 -3.9 16 11.9 E 20 30 11 16 1022.0 1018.6 0.0
21/05:30am 21.4 18.2 2.9 29 9.0 ENE 9 15 5 8 1022.0 1018.6 0.0
21/05:00am 20.7 18.2 3.9 33 8.3 NNE 6 9 3 5 1021.8 1018.4 0.0
21/04:30am 21.8 17.8 3.0 29 9.2 SE 13 19 7 10 1021.5 1018.1 0.0
21/04:00am 21.3 17.2 4.3 32 8.5 ESE 15 17 8 9 1021.4 1018.0 0.0
21/03:30am 22.2 18.1 4.3 31 9.0 SE 15 20 8 11 1021.4 1018.0 0.0
21/03:00am 22.2 17.7 4.3 31 9.0 SE 17 20 9 11 1021.2 1017.8 0.0
21/02:30am 21.8 18.0 3.9 31 8.9 ESE 13 15 7 8 1021.5 1018.1 0.0
21/02:00am 22.0 18.7 4.5 32 8.8 SSE 11 15 6 8 1021.7 1018.3 0.0
21/01:30am 22.4 18.7 4.3 30 9.1 S 13 15 7 8 1021.7 1018.3 0.0
21/01:00am 22.7 19.7 4.2 30 9.3 S 9 15 5 8 1022.2 1018.8 0.0
21/12:30am 23.3 20.3 4.0 28 9.7 SSW 9 13 5 7 1022.4 1019.0 0.0
21/12:00am 23.6 19.4 3.6 27 10.0 S 15 20 8 11 1022.3 1018.9 0.0
 
Date/Time
WST
Temp
°C
App
Temp
°C
Dew
Point
°C
Rel
Hum
%
Delta-T
°C
Wind Press
QNH
hPa
Press
MSL
hPa
Rain since
9am
mm
Dir  Spd
km/h
Gust
km/h
Spd
kts
Gust
kts
20/11:30pm 23.4 19.3 4.2 28 9.7 S 15 20 8 11 1022.7 1019.3 0.0
20/11:00pm 23.4 19.7 4.5 29 9.6 SSW 13 17 7 9 1023.3 1019.9 0.0
20/10:30pm 24.3 21.3 4.2 27 10.2 SSW 9 13 5 7 1023.7 1020.3 0.0
20/10:00pm 24.8 20.9 3.6 25 10.7 SSE 13 19 7 10 1023.6 1020.2 0.0
20/09:30pm 24.9 20.5 2.8 23 11.0 SSE 15 20 8 11 1023.3 1019.9 0.0
20/09:00pm 25.3 20.0 2.9 23 11.2 SSE 20 32 11 17 1023.3 1019.9 0.0
20/08:30pm 26.0 19.0 1.8 20 11.9 SSE 28 39 15 21 1022.9 1019.5 0.0
20/08:02pm 27.0 19.9 3.5 22 12.0 SSE 30 48 16 26 1022.2 1018.8 0.0
20/08:00pm 27.2 19.7 3.2 21 12.2 SSE 32 48 17 26 1022.1 1018.7 0.0
20/07:45pm 27.5 19.7 3.1 20 12.4 SE 33 54 18 29 1021.6 1018.2 0.0
20/07:30pm 27.3 21.2 5.0 24 11.7 SE 26 39 14 21 1022.0 1018.6 0.0
20/07:00pm 28.0 22.9 4.1 21 12.4 SE 20 32 11 17 1022.1 1018.7 0.0
20/06:30pm 28.3 23.2 4.1 21 12.6 SE 20 28 11 15 1021.4 1018.0 0.0
20/06:00pm 28.4 23.4 4.6 22 12.5 SE 20 28 11 15 1021.1 1017.7 0.0
20/05:30pm 28.8 21.8 4.1 20 12.9 SE 30 43 16 23 1020.4 1017.0 0.0
20/05:00pm 29.4 22.1 4.3 20 13.2 SE 32 44 17 24 1020.1 1016.7 0.0
20/04:30pm 30.1 23.6 4.7 20 13.5 SE 28 39 15 21 1020.2 1016.8 0.0
20/04:00pm 29.0 21.8 6.0 23 12.4 SSE 33 48 18 26 1021.4 1018.0 0.0
20/03:40pm 29.3 22.2 6.3 23 12.5 SSE 33 52 18 28 1021.1 1017.7 0.0
20/03:30pm 29.4 22.3 6.2 23 12.6 SSE 33 52 18 28 1021.0 1017.5 0.0
20/03:26pm 30.0 23.9 4.8 20 13.4 S 26 50 14 27 1020.9 1017.4 0.0
20/03:00pm 30.4 25.0 4.3 19 13.8 SSE 22 32 12 17 1020.0 1016.6 0.0
20/02:30pm 29.6 26.0 6.8 23 12.5 SW 15 28 8 15 1019.6 1016.2 0.0
20/02:00pm 32.4 28.7 2.2 14 15.6 NNW 11 24 6 13 1019.5 1016.0 0.0
20/01:30pm 33.4 25.3 0.7 12 16.6 WNW 33 44 18 24 1018.6 1015.2 0.0
20/01:24pm 33.3 26.4 2.8 14 16.0 WNW 28 44 15 24 1018.5 1015.1 0.0
20/01:00pm 36.8 31.2 -2.7 8 19.4 NNW 17 28 9 15 1018.5 1015.1 0.0
20/12:30pm 36.1 31.9 -0.9 9 18.6 NW 11 28 6 15 1019.1 1015.6 0.0
20/12:00pm 35.7 31.0 1.1 11 17.9 NNW 15 28 8 15 1019.4 1015.9 0.0
20/11:30am 36.4 30.6 -1.5 9 18.9 NNE 19 26 10 14 1019.8 1016.4 0.0
20/11:00am 35.0 30.4 1.8 12 17.3 N 15 26 8 14 1020.1 1016.7 0.0
20/10:30am 35.7 30.7 1.5 11 17.8 N 17 26 9 14 1020.4 1017.0 0.0
20/10:00am 33.5 27.9 1.3 13 16.5 N 20 28 11 15 1020.9 1017.4 0.0
20/09:30am 34.2 28.9 1.8 13 16.8 N 19 26 10 14 1021.1 1017.7 0.0
20/09:00am 33.2 27.9 1.7 13 16.2 NNE 19 28 10 15 1021.4 1018.0 0.0
20/08:30am 33.3 31.0 5.5 17 15.3 NNE 7 11 4 6 1021.5 1018.1 0.0
20/08:00am 32.4 28.0 4.7 17 14.9 ENE 17 20 9 11 1021.5 1018.1 0.0
20/07:30am 30.6 25.7 4.3 19 13.9 E 19 26 10 14 1021.5 1018.1 0.0
20/07:00am 29.5 26.0 5.4 21 12.9 E 13 20 7 11 1021.1 1017.7 0.0
20/06:30am 27.3 23.5 5.7 25 11.5 E 15 19 8 10 1021.3 1017.9 0.0
20/06:00am 25.4 21.5 5.3 27 10.5 E 15 17 8 9 1021.4 1018.0 0.0
20/05:30am 24.8 20.5 5.1 28 10.2 E 17 20 9 11 1021.4 1018.0 0.0
20/05:00am 24.4 20.4 5.0 28 10.0 E 15 20 8 11 1021.4 1018.0 0.0
20/04:30am 23.7 20.9 5.0 29 9.6 E 9 13 5 7 1021.3 1017.9 0.0
20/04:00am 24.0 20.4 5.2 29 9.7 E 13 15 7 8 1021.2 1017.8 0.0
20/03:30am 23.5 19.5 5.0 30 9.5 E 15 19 8 10 1021.1 1017.7 0.0
20/03:00am 23.2 19.1 4.2 29 9.6 E 15 19 8 10 1020.9 1017.4 0.0
20/02:30am 22.3 18.6 4.5 31 9.0 E 13 17 7 9 1020.9 1017.4 0.0
20/02:00am 22.0 18.8 3.0 28 9.3 SE 9 24 5 13 1021.0 1017.5 0.0
20/01:30am 23.6 22.5 4.9 29 9.6 CALM 0 0 0 0 1020.6 1017.2 0.0
20/01:00am 23.8 21.2 4.3 28 9.9 E 7 9 4 5 1020.6 1017.2 0.0
20/12:30am 24.5 21.7 5.2 28 10.0 E 9 11 5 6 1020.9 1017.4 0.0
20/12:00am 23.7 20.6 3.8 27 10.0 E 9 13 5 7 1020.9 1017.4 0.0
 
Date/Time
WST
Temp
°C
App
Temp
°C
Dew
Point
°C
Rel
Hum
%
Delta-T
°C
Wind Press
QNH
hPa
Press
MSL
hPa
Rain since
9am
mm
Dir  Spd
km/h
Gust
km/h
Spd
kts
Gust
kts
19/11:30pm 23.9 20.7 3.2 26 10.3 ESE 9 13 5 7 1021.3 1017.9 0.0
19/11:00pm 24.1 21.1 4.2 27 10.1 ENE 9 13 5 7 1021.7 1018.3 0.0
19/10:30pm 25.2 22.0 4.9 27 10.5 W 11 15 6 8 1022.0 1018.6 0.0
19/10:00pm 25.3 23.1 5.4 27 10.4 NW 6 9 3 5 1021.8 1018.4 0.0
19/09:30pm 23.6 20.8 2.3 24 10.4 SW 6 15 3 8 1021.9 1018.5 0.0
19/09:00pm 26.6 25.3 5.9 26 11.0 WNW 2 7 1 4 1021.5 1018.1 0.0
19/08:30pm 27.3 24.1 3.1 21 12.3 NNW 9 11 5 6 1021.1 1017.7 0.0
19/08:00pm 27.4 23.4 3.0 20 12.4 N 13 13 7 7 1020.7 1017.3 0.0
19/07:30pm 27.0 23.3 2.5 20 12.3 N 11 15 6 8 1020.4 1017.0 0.0
19/07:00pm 27.6 23.3 1.2 18 13.0 NNW 13 17 7 9 1020.4 1017.0 0.0
19/06:30pm 28.6 25.2 1.9 18 13.4 NNW 9 11 5 6 1020.1 1016.7 0.0
19/06:00pm 29.6 25.8 1.9 17 14.0 NNE 11 17 6 9 1019.6 1016.2 0.0
19/05:30pm 30.6 25.7 1.9 16 14.6 N 17 20 9 11 1019.4 1015.9 0.0
19/05:00pm 31.9 25.8 0.6 13 15.7 N 22 28 12 15 1018.9 1015.5 0.0
19/04:30pm 33.5 29.2 0.9 12 16.6 ENE 13 17 7 9 1018.6 1015.2 0.0
19/04:00pm 33.0 28.6 0.1 12 16.5 E 13 19 7 10 1018.4 1015.0 0.0
19/03:30pm 32.7 29.4 2.2 14 15.8 ENE 9 13 5 7 1018.4 1015.0 0.0
19/03:00pm 32.7 28.3 0.6 13 16.2 ESE 13 19 7 10 1018.3 1014.9 0.0
19/02:30pm 32.5 26.2 -0.8 12 16.4 SE 22 28 12 15 1018.4 1015.0 0.0

Other formats

Comma delimited format used in spreadsheet applications
http://www.bom.gov.au/fwo/IDW60801/IDW60801.94461.axf

JavaScript Object Notation format (JSON) in row-major order
http://www.bom.gov.au/fwo/IDW60801/IDW60801.94461.json

Data quality

Most of these data are generated automatically and are frequently updated. Quality checks on data are not normally performed. It is possible for incorrect values to appear. Refer to information at About Latest Weather Observations and please check the disclaimer before using these data.